Terminal Aerodrome Forecast
Issued by NWS

Home | Current Version | Previous Version | Text Only | Print | Product List | Glossary On
Versions: 1 2 3 4 5 6 7 8 9 10 11 12 13 14 15 16 17 18 19 20 21 22 23 24 25 26 27 28 29 30 31 32
000
FTUS43 KAPX 251144 AAA
TAFAPN
TAF AMD
KAPN 251144Z 2512/2612 26010KT P6SM SCT030 SCT080 BKN100
      TEMPO 2512/2514 SCT025 BKN030
     FM251600 26011G19KT P6SM SCT150
     FM252200 24011G19KT P6SM FEW050
     FM260100 23009KT P6SM FEW050
     FM260400 22009KT P6SM VCSH FEW040
     FM260500 23009KT P6SM FEW050=

USA.gov is the U.S. government's official web portal to all federal, state and local government web resources and services.